Terminal Aerodrome Forecast
Issued by NWS

Home | Current Version | Previous Version | Text Only | Print | Product List | Glossary On
Versions: 1 2 3 4 5 6 7 8 9 10 11
833
FTUS45 KRIW 071727
TAFBPI
TAF
KBPI 071727Z 0718/0818 34012G18KT P6SM SCT250
     FM080700 33007KT P6SM SCT250=

USA.gov is the U.S. government's official web portal to all federal, state and local government web resources and services.